Time;durP1;ratioP1;P1;durP2;ratioP2;P2;SDS_P1;SDS_P2;PMS_P1;PMS_P2;Temp;Humidity;BMP_temperature;BMP_pressure;BME280_temperature;BME280_humidity;BME280_pressure;Samples;Min_cycle;Max_cycle;Signal;HPM_P1;HPM_P2
2022/03/06 00:02:14;;;;;;;;;;;-0.20;99.90;;;;;;4961893;28;19935;-78
2022/03/06 00:04:40;;;;;;;;;;;-0.20;99.90;;;;;;4983981;28;20017;-77
2022/03/06 00:07:05;;;;;;;;;;;-0.20;99.90;;;;;;4964765;28;19937;-77
2022/03/06 00:09:31;;;;;;;;;;;-0.20;99.90;;;;;;4963717;28;20468;-77
2022/03/06 00:11:56;;;;;;;;;;;-0.20;99.90;;;;;;4961931;28;20019;-77
2022/03/06 00:14:22;;;;;;;;;;;-0.20;99.90;;;;;;4959856;28;20850;-77
2022/03/06 00:16:48;;;;;;;;;;;-0.20;99.90;;;;;;4961622;28;19932;-78
2022/03/06 00:19:14;;;;;;;;;;;-0.30;99.90;;;;;;4955196;28;20811;-77
2022/03/06 00:21:40;;;;;;;;;;;-0.30;99.90;;;;;;4979167;28;19933;-78
2022/03/06 00:24:06;;;;;;;;;;;-0.30;99.90;;;;;;4979082;28;20905;-78
2022/03/06 00:26:32;;;;;;;;;;;-0.30;99.90;;;;;;4951558;28;20317;-77
2022/03/06 00:28:57;;;;;;;;;;;-0.30;99.90;;;;;;4956015;28;19932;-78
2022/03/06 00:31:23;;;;;;;;;;;-0.40;99.90;;;;;;4976508;28;20028;-78
2022/03/06 00:33:49;;;;;;;;;;;-0.40;99.90;;;;;;4956225;28;20444;-78
2022/03/06 00:36:15;;;;;;;;;;;-0.40;99.90;;;;;;4974698;28;20223;-78
2022/03/06 00:38:41;;;;;;;;;;;-0.50;99.90;;;;;;4955368;28;20011;-78
2022/03/06 00:41:07;;;;;;;;;;;-0.50;99.90;;;;;;4959271;28;20892;-78
2022/03/06 00:43:33;;;;;;;;;;;-0.50;99.90;;;;;;4971742;28;19929;-78
2022/03/06 00:45:59;;;;;;;;;;;-0.50;99.90;;;;;;4975699;28;19990;-78
2022/03/06 00:48:24;;;;;;;;;;;-0.50;99.90;;;;;;4954864;28;19928;-78
2022/03/06 00:50:50;;;;;;;;;;;-0.50;99.90;;;;;;4941709;28;19935;-78
2022/03/06 00:53:16;;;;;;;;;;;-0.60;99.90;;;;;;4956346;28;19935;-78
2022/03/06 00:55:42;;;;;;;;;;;-0.60;99.90;;;;;;4956735;28;20495;-78
2022/03/06 00:58:09;;;;;;;;;;;-0.60;99.90;;;;;;4953388;28;19932;-78
2022/03/06 01:00:42;;;;;;;;;;;-0.60;99.90;;;;;;4948736;28;20011;-78
2022/03/06 01:03:09;;;;;;;;;;;-0.60;99.90;;;;;;4955456;28;20819;-78
2022/03/06 01:05:35;;;;;;;;;;;-0.60;99.90;;;;;;4954335;28;20117;-78
2022/03/06 01:08:01;;;;;;;;;;;-0.70;99.90;;;;;;4968111;28;20334;-78
2022/03/06 01:10:27;;;;;;;;;;;-0.70;99.90;;;;;;4953853;28;19928;-78
2022/03/06 01:12:52;;;;;;;;;;;-0.60;99.90;;;;;;4968330;28;19928;-78
2022/03/06 01:15:18;;;;;;;;;;;-0.70;99.90;;;;;;4956083;28;20341;-78
2022/03/06 01:17:44;;;;;;;;;;;-0.70;99.90;;;;;;4977147;28;20283;-78
2022/03/06 01:20:10;;;;;;;;;;;-0.70;99.90;;;;;;4956684;28;20002;-77
2022/03/06 01:22:35;;;;;;;;;;;-0.70;99.90;;;;;;4952559;28;20807;-77
2022/03/06 01:25:01;;;;;;;;;;;-0.70;99.90;;;;;;4958050;28;19928;-78
2022/03/06 01:27:27;;;;;;;;;;;-0.70;99.90;;;;;;4950602;28;19932;-78
2022/03/06 01:29:52;;;;;;;;;;;-0.60;99.90;;;;;;4957837;28;20400;-77
2022/03/06 01:32:18;;;;;;;;;;;-0.60;99.90;;;;;;4954886;28;19929;-77
2022/03/06 01:34:43;;;;;;;;;;;-0.60;99.90;;;;;;4949281;28;20027;-77
2022/03/06 01:37:09;;;;;;;;;;;-0.50;99.90;;;;;;4940135;28;19938;-77
2022/03/06 01:39:35;;;;;;;;;;;-0.60;99.90;;;;;;4973006;28;19971;-77
2022/03/06 01:42:01;;;;;;;;;;;-0.60;99.90;;;;;;4949571;28;20980;-77
2022/03/06 01:44:27;;;;;;;;;;;-0.50;99.90;;;;;;4960183;28;19929;-77
2022/03/06 01:46:52;;;;;;;;;;;-0.50;99.90;;;;;;4959056;28;20881;-77
2022/03/06 01:49:18;;;;;;;;;;;-0.40;99.90;;;;;;4974029;28;20099;-77
2022/03/06 01:51:44;;;;;;;;;;;-0.40;99.90;;;;;;4972943;28;20393;-77
2022/03/06 01:54:10;;;;;;;;;;;-0.30;99.90;;;;;;4954255;28;19928;-77
2022/03/06 01:56:36;;;;;;;;;;;-0.40;99.90;;;;;;4973709;28;19987;-77
2022/03/06 01:59:02;;;;;;;;;;;-0.30;99.90;;;;;;4933110;28;19962;-77
2022/03/06 02:01:29;;;;;;;;;;;-0.30;99.90;;;;;;4950456;28;19929;-77
2022/03/06 02:03:54;;;;;;;;;;;-0.20;99.90;;;;;;4953296;28;20400;-77
2022/03/06 02:06:22;;;;;;;;;;;-0.20;99.90;;;;;;4968937;28;19936;-78
2022/03/06 02:08:48;;;;;;;;;;;-0.20;99.90;;;;;;4953941;28;19933;-77
2022/03/06 02:11:14;;;;;;;;;;;-0.20;99.90;;;;;;4957781;28;20688;-77
2022/03/06 02:13:40;;;;;;;;;;;-0.20;99.90;;;;;;4953382;28;20724;-77
2022/03/06 02:16:05;;;;;;;;;;;-0.10;99.90;;;;;;4956520;28;19928;-77
2022/03/06 02:18:31;;;;;;;;;;;-0.10;99.90;;;;;;4983259;28;19928;-77
2022/03/06 02:20:57;;;;;;;;;;;-0.10;99.90;;;;;;4974941;28;20051;-77
2022/03/06 02:23:24;;;;;;;;;;;-0.10;99.90;;;;;;4962291;28;20541;-77
2022/03/06 02:25:49;;;;;;;;;;;-0.10;99.90;;;;;;4976762;28;20099;-77
2022/03/06 02:28:15;;;;;;;;;;;-0.20;99.90;;;;;;4973394;28;19932;-77
2022/03/06 02:30:42;;;;;;;;;;;-0.10;99.90;;;;;;4972106;28;19928;-77
2022/03/06 02:33:08;;;;;;;;;;;-0.20;99.90;;;;;;4948694;28;20947;-77
2022/03/06 02:35:35;;;;;;;;;;;-0.20;99.90;;;;;;4928484;28;19925;-78
2022/03/06 02:38:00;;;;;;;;;;;-0.20;99.90;;;;;;4973767;28;20708;-78
2022/03/06 02:40:26;;;;;;;;;;;-0.20;99.90;;;;;;4969172;28;20472;-77
2022/03/06 02:42:52;;;;;;;;;;;-0.30;99.90;;;;;;4951282;28;19935;-77
2022/03/06 02:45:25;;;;;;;;;;;-0.30;99.90;;;;;;4964769;28;19932;-77
2022/03/06 02:47:55;;;;;;;;;;;-0.30;99.90;;;;;;4969356;28;20413;-78
2022/03/06 02:50:22;;;;;;;;;;;-0.30;99.90;;;;;;4969320;28;20192;-77
2022/03/06 02:52:50;;;;;;;;;;;-0.30;99.90;;;;;;4956081;28;19940;-78
2022/03/06 02:55:16;;;;;;;;;;;-0.40;99.90;;;;;;4971649;28;19935;-77
2022/03/06 02:57:42;;;;;;;;;;;-0.50;99.90;;;;;;4947561;28;20326;-78
2022/03/06 03:00:10;;;;;;;;;;;-0.40;99.90;;;;;;4951668;28;19928;-78
2022/03/06 03:02:37;;;;;;;;;;;-0.50;99.90;;;;;;4947459;28;20043;-78
2022/03/06 03:05:03;;;;;;;;;;;-0.30;99.90;;;;;;4946733;28;19928;-78
2022/03/06 03:07:29;;;;;;;;;;;-0.50;99.90;;;;;;4946433;28;19928;-78
2022/03/06 03:09:54;;;;;;;;;;;-0.50;99.90;;;;;;4946251;28;20002;-78
2022/03/06 03:12:20;;;;;;;;;;;-0.40;99.90;;;;;;4948639;28;20321;-78
2022/03/06 03:14:46;;;;;;;;;;;-0.40;99.90;;;;;;4929866;28;19932;-78
2022/03/06 03:17:11;;;;;;;;;;;-0.50;99.90;;;;;;4945684;28;19950;-77
2022/03/06 03:19:37;;;;;;;;;;;-0.40;99.90;;;;;;4950783;28;20497;-78
2022/03/06 03:22:03;;;;;;;;;;;-0.40;99.90;;;;;;4952161;28;19925;-77
2022/03/06 03:24:29;;;;;;;;;;;-0.30;99.90;;;;;;4955886;28;20332;-77
2022/03/06 03:26:55;;;;;;;;;;;-0.30;99.90;;;;;;4953232;28;20269;-77
2022/03/06 03:29:20;;;;;;;;;;;-0.10;99.90;;;;;;4969770;28;19982;-77
2022/03/06 03:31:46;;;;;;;;;;;-0.20;99.90;;;;;;4929765;28;20059;-77
2022/03/06 03:34:12;;;;;;;;;;;-0.10;99.90;;;;;;4951461;28;20500;-77
2022/03/06 03:36:38;;;;;;;;;;;-0.20;99.90;;;;;;4971515;28;20516;-77
2022/03/06 03:39:04;;;;;;;;;;;-0.10;99.90;;;;;;4955640;28;19936;-77
2022/03/06 03:41:30;;;;;;;;;;;-0.10;99.90;;;;;;4953177;28;19924;-77
2022/03/06 03:43:55;;;;;;;;;;;-0.10;99.90;;;;;;4968944;28;19928;-77
2022/03/06 03:46:21;;;;;;;;;;;-0.10;99.90;;;;;;4956222;28;19939;-78
2022/03/06 03:48:47;;;;;;;;;;;0.00;99.90;;;;;;4972516;28;20520;-77
2022/03/06 03:51:12;;;;;;;;;;;0.00;99.90;;;;;;4953305;28;19935;-78
2022/03/06 03:53:38;;;;;;;;;;;0.00;99.90;;;;;;4953861;28;19929;-77
2022/03/06 03:56:05;;;;;;;;;;;0.00;99.90;;;;;;4952827;28;20442;-77
2022/03/06 03:58:30;;;;;;;;;;;0.10;99.90;;;;;;4971212;28;20358;-77
2022/03/06 04:00:57;;;;;;;;;;;0.20;99.90;;;;;;4977550;28;19979;-77
2022/03/06 04:03:23;;;;;;;;;;;0.10;99.90;;;;;;4974573;28;19974;-77
2022/03/06 04:05:49;;;;;;;;;;;0.10;99.90;;;;;;4952084;28;20465;-77
2022/03/06 04:08:14;;;;;;;;;;;0.10;99.90;;;;;;4949327;28;20922;-77
2022/03/06 04:10:46;;;;;;;;;;;0.20;99.90;;;;;;4950788;28;19986;-78
2022/03/06 04:13:12;;;;;;;;;;;0.20;99.90;;;;;;4968613;28;19978;-77
2022/03/06 04:15:38;;;;;;;;;;;0.10;99.90;;;;;;4946259;28;20576;-78
2022/03/06 04:18:04;;;;;;;;;;;0.10;99.90;;;;;;4949840;28;19929;-78
2022/03/06 04:20:30;;;;;;;;;;;0.20;99.90;;;;;;4967834;28;19997;-78
2022/03/06 04:22:56;;;;;;;;;;;0.20;99.90;;;;;;4956898;28;19932;-77
2022/03/06 04:25:22;;;;;;;;;;;0.10;99.90;;;;;;4952090;28;19929;-80
2022/03/06 04:27:48;;;;;;;;;;;0.20;99.90;;;;;;4967068;28;19933;-78
2022/03/06 04:30:13;;;;;;;;;;;0.00;99.90;;;;;;4952879;28;20998;-78
2022/03/06 04:32:39;;;;;;;;;;;0.00;99.90;;;;;;4967629;28;19994;-78
2022/03/06 04:35:05;;;;;;;;;;;0.10;99.90;;;;;;4954066;28;19934;-78
2022/03/06 04:37:31;;;;;;;;;;;0.00;99.90;;;;;;4958040;28;19937;-78
2022/03/06 04:39:57;;;;;;;;;;;-0.10;99.90;;;;;;4956551;28;20450;-77
2022/03/06 04:42:22;;;;;;;;;;;-0.10;99.90;;;;;;4958430;28;20865;-78
2022/03/06 04:44:48;;;;;;;;;;;-0.10;99.90;;;;;;4962984;28;20301;-78
2022/03/06 04:47:14;;;;;;;;;;;-0.20;99.90;;;;;;4959608;28;19932;-77
2022/03/06 04:49:40;;;;;;;;;;;-0.20;99.90;;;;;;4956486;28;19929;-77
2022/03/06 04:52:05;;;;;;;;;;;-0.30;99.90;;;;;;4958688;28;20007;-78
2022/03/06 04:54:31;;;;;;;;;;;-0.20;99.90;;;;;;4974920;28;20290;-77
2022/03/06 04:56:57;;;;;;;;;;;-0.30;99.90;;;;;;4973070;28;19935;-78
2022/03/06 04:59:23;;;;;;;;;;;-0.30;99.90;;;;;;4955751;28;20069;-78
2022/03/06 05:01:48;;;;;;;;;;;-0.40;99.90;;;;;;4976266;28;19932;-78
2022/03/06 05:04:14;;;;;;;;;;;-0.40;99.90;;;;;;4978234;28;20023;-78
2022/03/06 05:06:40;;;;;;;;;;;-0.40;99.90;;;;;;4972741;28;20292;-78
2022/03/06 05:09:05;;;;;;;;;;;-0.50;99.90;;;;;;4970759;28;20797;-77
2022/03/06 05:11:33;;;;;;;;;;;-0.50;99.90;;;;;;4955171;28;20348;-77
2022/03/06 05:13:58;;;;;;;;;;;-0.40;99.90;;;;;;4958938;28;20792;-78
2022/03/06 05:16:24;;;;;;;;;;;-0.40;99.90;;;;;;4967013;28;19929;-78
2022/03/06 05:18:50;;;;;;;;;;;-0.60;99.90;;;;;;4970792;28;19935;-77
2022/03/06 05:21:16;;;;;;;;;;;-0.50;99.90;;;;;;4944710;28;20344;-77
2022/03/06 05:23:43;;;;;;;;;;;-0.70;99.90;;;;;;4959280;28;19937;-77
2022/03/06 05:26:08;;;;;;;;;;;-0.70;99.90;;;;;;4955213;28;20521;-77
2022/03/06 05:28:34;;;;;;;;;;;-0.80;99.90;;;;;;4976765;28;20748;-76
2022/03/06 05:30:59;;;;;;;;;;;-0.70;99.90;;;;;;4972121;28;19947;-77
2022/03/06 05:33:25;;;;;;;;;;;-0.70;99.90;;;;;;4943853;28;19936;-77
2022/03/06 05:35:51;;;;;;;;;;;-0.80;99.90;;;;;;4956908;28;20792;-76
2022/03/06 05:38:16;;;;;;;;;;;-0.80;99.90;;;;;;4974777;28;20452;-76
2022/03/06 05:40:42;;;;;;;;;;;-0.80;99.90;;;;;;4975789;28;19933;-76
2022/03/06 05:43:08;;;;;;;;;;;-1.00;99.90;;;;;;4961140;28;19933;-76
2022/03/06 05:45:33;;;;;;;;;;;-0.90;99.90;;;;;;4962919;28;19928;-76
2022/03/06 05:48:01;;;;;;;;;;;-0.90;99.90;;;;;;4981333;28;20467;-76
2022/03/06 05:50:26;;;;;;;;;;;-1.00;99.90;;;;;;4960602;28;19937;-76
2022/03/06 05:52:52;;;;;;;;;;;-1.00;99.90;;;;;;4958600;28;19933;-77
2022/03/06 05:55:18;;;;;;;;;;;-1.00;99.90;;;;;;4974905;28;20097;-76
2022/03/06 05:57:44;;;;;;;;;;;-1.00;99.90;;;;;;4958921;28;19939;-76
2022/03/06 06:00:10;;;;;;;;;;;-1.10;99.90;;;;;;4952390;28;20033;-76
2022/03/06 06:02:36;;;;;;;;;;;-1.00;99.90;;;;;;4976018;28;20315;-76
2022/03/06 06:05:03;;;;;;;;;;;-1.00;99.90;;;;;;4953829;28;20665;-76
2022/03/06 06:07:28;;;;;;;;;;;-1.10;99.90;;;;;;4942822;28;19936;-76
2022/03/06 06:09:54;;;;;;;;;;;-1.00;99.90;;;;;;4960286;28;20430;-76
2022/03/06 06:12:20;;;;;;;;;;;-1.10;99.90;;;;;;4953206;28;20293;-76
2022/03/06 06:14:45;;;;;;;;;;;-1.10;99.90;;;;;;4954123;28;19929;-77
2022/03/06 06:17:11;;;;;;;;;;;-1.00;99.90;;;;;;4953531;28;19932;-76
2022/03/06 06:19:36;;;;;;;;;;;-1.00;99.90;;;;;;4971236;28;20377;-76
2022/03/06 06:22:02;;;;;;;;;;;-1.10;99.90;;;;;;4958376;28;20556;-76
2022/03/06 06:24:29;;;;;;;;;;;-1.10;99.90;;;;;;4940169;28;19935;-76
2022/03/06 06:26:55;;;;;;;;;;;-1.10;99.90;;;;;;4958665;28;19951;-76
2022/03/06 06:29:21;;;;;;;;;;;-1.00;99.90;;;;;;4976467;28;20345;-76
2022/03/06 06:31:47;;;;;;;;;;;-1.00;99.90;;;;;;4955101;28;20284;-75
2022/03/06 06:34:13;;;;;;;;;;;-0.90;99.90;;;;;;4974403;28;20663;-76
2022/03/06 06:36:39;;;;;;;;;;;-0.90;99.90;;;;;;4977234;28;19980;-76
2022/03/06 06:39:05;;;;;;;;;;;-0.80;99.90;;;;;;4955925;28;20049;-76
2022/03/06 06:41:31;;;;;;;;;;;-0.80;99.90;;;;;;4960032;28;19982;-76
2022/03/06 06:43:56;;;;;;;;;;;-0.70;99.90;;;;;;4976184;28;19934;-76
2022/03/06 06:46:22;;;;;;;;;;;-0.60;99.90;;;;;;4980713;28;19975;-76
2022/03/06 06:48:48;;;;;;;;;;;-0.50;99.90;;;;;;4955272;28;19975;-76
2022/03/06 06:51:14;;;;;;;;;;;-0.50;99.90;;;;;;4960859;28;19929;-75
2022/03/06 06:53:39;;;;;;;;;;;-0.40;99.90;;;;;;4968262;28;20406;-75
2022/03/06 06:56:05;;;;;;;;;;;-0.40;99.90;;;;;;4957098;28;20078;-76
2022/03/06 06:58:30;;;;;;;;;;;-0.30;99.90;;;;;;4958289;28;20384;-75
2022/03/06 07:00:56;;;;;;;;;;;-0.20;99.90;;;;;;4981017;28;20009;-76
2022/03/06 07:03:22;;;;;;;;;;;-0.10;99.90;;;;;;4957661;28;20474;-76
2022/03/06 07:05:48;;;;;;;;;;;-0.10;99.90;;;;;;4959076;28;20196;-76
2022/03/06 07:08:14;;;;;;;;;;;0.00;99.90;;;;;;4934872;28;19931;-76
2022/03/06 07:10:39;;;;;;;;;;;0.00;99.90;;;;;;4953044;28;19925;-76
2022/03/06 07:13:05;;;;;;;;;;;0.10;99.90;;;;;;4958616;28;19925;-76
2022/03/06 07:15:32;;;;;;;;;;;0.20;99.90;;;;;;4957032;28;19932;-75
2022/03/06 07:17:58;;;;;;;;;;;0.20;99.90;;;;;;4960137;28;20462;-75
2022/03/06 07:20:24;;;;;;;;;;;0.30;99.90;;;;;;4978031;28;19940;-75
2022/03/06 07:22:50;;;;;;;;;;;0.40;99.90;;;;;;4957943;28;19939;-75
2022/03/06 07:25:16;;;;;;;;;;;0.50;99.90;;;;;;4974911;28;20895;-75
2022/03/06 07:27:41;;;;;;;;;;;0.60;99.90;;;;;;4976706;28;19929;-76
2022/03/06 07:30:07;;;;;;;;;;;0.70;99.90;;;;;;4955886;28;19924;-75
2022/03/06 07:32:39;;;;;;;;;;;0.80;99.90;;;;;;4945991;28;19928;-75
2022/03/06 07:35:05;;;;;;;;;;;0.90;99.90;;;;;;4962335;28;19928;-75
2022/03/06 07:37:31;;;;;;;;;;;0.90;99.90;;;;;;4963235;28;19956;-75
2022/03/06 07:39:56;;;;;;;;;;;1.10;99.90;;;;;;4960570;28;19929;-75
2022/03/06 07:42:22;;;;;;;;;;;1.10;99.90;;;;;;4981885;28;20412;-76
2022/03/06 07:44:47;;;;;;;;;;;1.10;99.90;;;;;;4977996;28;19929;-76
2022/03/06 07:47:13;;;;;;;;;;;1.30;99.90;;;;;;4976766;28;19947;-75
2022/03/06 07:49:38;;;;;;;;;;;1.30;99.90;;;;;;4942294;28;20566;-75
2022/03/06 07:52:04;;;;;;;;;;;1.40;99.90;;;;;;4959469;28;20296;-76
2022/03/06 07:54:30;;;;;;;;;;;1.40;99.90;;;;;;4960896;28;19968;-75
2022/03/06 07:56:55;;;;;;;;;;;1.50;99.90;;;;;;4961982;28;20010;-75
2022/03/06 07:59:24;;;;;;;;;;;1.60;99.90;;;;;;4953069;28;20023;-75
2022/03/06 08:01:50;;;;;;;;;;;1.60;99.90;;;;;;4982424;28;20397;-76
2022/03/06 08:04:16;;;;;;;;;;;1.70;99.90;;;;;;4959199;28;21034;-75
2022/03/06 08:06:41;;;;;;;;;;;1.80;99.90;;;;;;4960421;28;19929;-75
2022/03/06 08:09:07;;;;;;;;;;;2.00;99.90;;;;;;4974329;28;19928;-75
2022/03/06 08:11:32;;;;;;;;;;;1.90;99.90;;;;;;4958143;28;19935;-75
2022/03/06 08:13:58;;;;;;;;;;;2.00;99.90;;;;;;4963789;28;19928;-76
2022/03/06 08:16:24;;;;;;;;;;;2.20;99.90;;;;;;4957842;28;19972;-76
2022/03/06 08:18:49;;;;;;;;;;;2.10;99.90;;;;;;4957328;28;19955;-75
2022/03/06 08:21:15;;;;;;;;;;;2.30;99.90;;;;;;4972069;28;19939;-76
2022/03/06 08:23:41;;;;;;;;;;;2.50;99.90;;;;;;4971586;28;19964;-76
2022/03/06 08:26:06;;;;;;;;;;;2.80;99.90;;;;;;4978936;28;20429;-75
2022/03/06 08:28:32;;;;;;;;;;;2.90;99.90;;;;;;4953016;28;19925;-76
2022/03/06 08:30:58;;;;;;;;;;;3.10;99.90;;;;;;4977395;28;19933;-76
2022/03/06 08:33:23;;;;;;;;;;;3.10;99.90;;;;;;4958818;28;19928;-76
2022/03/06 08:35:49;;;;;;;;;;;3.10;99.90;;;;;;4937431;28;20344;-76
2022/03/06 08:38:15;;;;;;;;;;;3.20;99.90;;;;;;4962341;28;20358;-76
2022/03/06 08:40:40;;;;;;;;;;;3.20;99.90;;;;;;4963339;28;19928;-76
2022/03/06 08:43:06;;;;;;;;;;;3.20;99.90;;;;;;4959701;28;20472;-77
2022/03/06 08:45:32;;;;;;;;;;;3.40;99.90;;;;;;4973321;28;20298;-76
2022/03/06 08:47:58;;;;;;;;;;;3.60;99.90;;;;;;4975799;28;19933;-76
2022/03/06 08:50:23;;;;;;;;;;;3.60;99.90;;;;;;4978067;28;20560;-76
2022/03/06 08:52:49;;;;;;;;;;;3.80;99.90;;;;;;4959666;28;19928;-77
2022/03/06 08:55:15;;;;;;;;;;;3.80;99.90;;;;;;4980288;28;20289;-76
2022/03/06 08:57:40;;;;;;;;;;;3.80;99.90;;;;;;4976488;28;19997;-77
2022/03/06 09:00:08;;;;;;;;;;;3.80;99.90;;;;;;4982252;28;20219;-77
2022/03/06 09:02:33;;;;;;;;;;;3.90;99.90;;;;;;4963035;28;19933;-77
2022/03/06 09:04:59;;;;;;;;;;;4.20;99.90;;;;;;4959114;28;19933;-76
2022/03/06 09:07:24;;;;;;;;;;;4.30;99.90;;;;;;4959468;28;20031;-76
2022/03/06 09:09:50;;;;;;;;;;;4.40;99.90;;;;;;4955439;28;19998;-77
2022/03/06 09:12:18;;;;;;;;;;;4.50;99.90;;;;;;4972185;28;19992;-77
2022/03/06 09:14:43;;;;;;;;;;;4.50;99.90;;;;;;4961703;28;20442;-77
2022/03/06 09:17:09;;;;;;;;;;;4.70;99.90;;;;;;4974820;28;19928;-77
2022/03/06 09:19:35;;;;;;;;;;;4.30;99.90;;;;;;4960584;28;19929;-78
2022/03/06 09:22:01;;;;;;;;;;;4.20;99.90;;;;;;4954142;28;20747;-77
2022/03/06 09:24:27;;;;;;;;;;;4.10;99.90;;;;;;4958460;28;19932;-77
2022/03/06 09:26:52;;;;;;;;;;;4.50;99.90;;;;;;4956063;28;19968;-77
2022/03/06 09:29:18;;;;;;;;;;;4.30;99.90;;;;;;4973300;28;19937;-77
2022/03/06 09:31:44;;;;;;;;;;;4.40;99.90;;;;;;4974264;28;19928;-77
2022/03/06 09:34:10;;;;;;;;;;;4.40;99.90;;;;;;4954176;28;19936;-78
2022/03/06 09:36:36;;;;;;;;;;;4.70;99.90;;;;;;4971373;28;19933;-77
2022/03/06 09:39:03;;;;;;;;;;;4.70;99.90;;;;;;4922534;28;19928;-78
2022/03/06 09:41:29;;;;;;;;;;;4.80;99.90;;;;;;4950808;28;20012;-78
2022/03/06 09:43:56;;;;;;;;;;;5.30;99.90;;;;;;4946593;28;20046;-78
2022/03/06 09:46:22;;;;;;;;;;;5.40;99.90;;;;;;4959906;28;20006;-77
2022/03/06 09:48:49;;;;;;;;;;;4.90;99.90;;;;;;4955988;28;20364;-77
2022/03/06 09:51:14;;;;;;;;;;;4.90;99.90;;;;;;4949826;28;19929;-78
2022/03/06 09:53:40;;;;;;;;;;;5.00;99.90;;;;;;4950763;28;19979;-78
2022/03/06 09:56:06;;;;;;;;;;;5.30;99.90;;;;;;4950370;28;20392;-78
2022/03/06 09:58:32;;;;;;;;;;;5.30;99.90;;;;;;4953589;28;19939;-78
2022/03/06 10:00:58;;;;;;;;;;;5.10;99.90;;;;;;4954708;28;20373;-78
2022/03/06 10:03:24;;;;;;;;;;;5.60;99.90;;;;;;4947161;28;19929;-78
2022/03/06 10:05:50;;;;;;;;;;;5.60;99.90;;;;;;4959812;28;20688;-78
2022/03/06 10:08:16;;;;;;;;;;;5.40;99.90;;;;;;4978883;28;20254;-78
2022/03/06 10:10:42;;;;;;;;;;;5.60;99.90;;;;;;4964316;28;19997;-78
2022/03/06 10:13:16;;;;;;;;;;;5.40;99.90;;;;;;4962177;28;20006;-78
2022/03/06 10:16:01;;;;;;;;;;;6.10;99.90;;;;;;4957826;28;20031;-78
2022/03/06 10:18:31;;;;;;;;;;;6.00;99.90;;;;;;4954893;28;19967;-78
2022/03/06 10:21:00;;;;;;;;;;;6.10;94.40;;;;;;4949616;28;20325;-78
2022/03/06 10:23:26;;;;;;;;;;;5.70;89.70;;;;;;4958958;28;20526;-77
2022/03/06 10:26:02;;;;;;;;;;;5.90;99.90;;;;;;4968886;28;19983;-78
2022/03/06 10:28:28;;;;;;;;;;;5.50;90.30;;;;;;4972639;28;19932;-77
2022/03/06 10:30:54;;;;;;;;;;;6.00;97.80;;;;;;4946938;28;20674;-77
2022/03/06 10:33:21;;;;;;;;;;;6.10;91.40;;;;;;4945597;28;21373;-77
2022/03/06 10:35:48;;;;;;;;;;;6.50;99.90;;;;;;4976537;28;20669;-78
2022/03/06 10:38:22;;;;;;;;;;;6.30;93.90;;;;;;4956052;28;19933;-78
2022/03/06 10:40:48;;;;;;;;;;;6.70;96.40;;;;;;4950775;28;20096;-77
2022/03/06 10:43:25;;;;;;;;;;;6.00;95.90;;;;;;4968383;28;19928;-78
2022/03/06 10:45:51;;;;;;;;;;;6.40;95.60;;;;;;4937828;28;20339;-77
2022/03/06 10:48:17;;;;;;;;;;;6.30;83.30;;;;;;4962688;28;20699;-77
2022/03/06 10:50:43;;;;;;;;;;;6.60;95.10;;;;;;4958042;28;19932;-77
2022/03/06 10:53:17;;;;;;;;;;;6.40;87.40;;;;;;4963539;28;20533;-77
2022/03/06 10:55:43;;;;;;;;;;;6.60;94.40;;;;;;4979310;28;19924;-77
2022/03/06 10:58:10;;;;;;;;;;;6.60;92.10;;;;;;4972198;28;20336;-78
2022/03/06 11:00:36;;;;;;;;;;;6.60;85.90;;;;;;4957337;28;19958;-77
2022/03/06 11:03:06;;;;;;;;;;;6.60;84.60;;;;;;4963703;28;20543;-78
2022/03/06 11:05:32;;;;;;;;;;;6.60;89.20;;;;;;4958671;28;20530;-79
2022/03/06 11:07:58;;;;;;;;;;;6.90;93.30;;;;;;4960718;28;20386;-77
2022/03/06 11:10:24;;;;;;;;;;;6.40;92.60;;;;;;4957083;28;20035;-77
2022/03/06 11:12:50;;;;;;;;;;;6.70;94.80;;;;;;4958397;28;19933;-77
2022/03/06 11:15:16;;;;;;;;;;;6.50;84.60;;;;;;4981270;28;20173;-77
2022/03/06 11:17:42;;;;;;;;;;;6.80;93.70;;;;;;4984115;28;19928;-77
2022/03/06 11:20:08;;;;;;;;;;;6.80;82.20;;;;;;4965599;28;19938;-77
2022/03/06 11:22:52;;;;;;;;;;;6.40;83.80;;;;;;4964266;28;19928;-77
2022/03/06 11:25:21;;;;;;;;;;;6.60;79.50;;;;;;4984243;28;19943;-78
2022/03/06 11:27:47;;;;;;;;;;;6.60;80.40;;;;;;4951136;28;20479;-77
2022/03/06 11:30:20;;;;;;;;;;;6.70;82.90;;;;;;4974937;28;19939;-78
2022/03/06 11:33:00;;;;;;;;;;;6.60;76.60;;;;;;4993677;28;19935;-77
2022/03/06 11:35:33;;;;;;;;;;;7.20;81.90;;;;;;4980217;28;20218;-77
2022/03/06 11:38:00;;;;;;;;;;;6.80;77.50;;;;;;4988135;28;19935;-77
2022/03/06 11:40:37;;;;;;;;;;;7.30;87.60;;;;;;4990717;28;20796;-79
2022/03/06 11:43:03;;;;;;;;;;;7.20;74.50;;;;;;4972730;28;19994;-77
2022/03/06 11:45:44;;;;;;;;;;;7.20;77.70;;;;;;4972576;28;20062;-78
2022/03/06 11:48:11;;;;;;;;;;;6.70;72.10;;;;;;4974147;28;19951;-77
2022/03/06 11:50:36;;;;;;;;;;;7.00;77.00;;;;;;4989611;28;20423;-77
2022/03/06 11:53:37;;;;;;;;;;;7.00;70.40;;;;;;4953690;28;20600;-78
2022/03/06 11:56:23;;;;;;;;;;;7.10;73.50;;;;;;4969673;28;19948;-78
2022/03/06 11:58:52;;;;;;;;;;;7.50;76.70;;;;;;4985983;28;19940;-77
2022/03/06 12:01:44;;;;;;;;;;;7.40;75.30;;;;;;4965134;28;20486;-78
2022/03/06 12:04:14;;;;;;;;;;;7.40;72.80;;;;;;4985189;28;19980;-77
2022/03/06 12:06:41;;;;;;;;;;;7.50;73.00;;;;;;4974157;28;20019;-77
2022/03/06 12:09:17;;;;;;;;;;;7.40;70.70;;;;;;4967923;28;19932;-77
2022/03/06 12:11:43;;;;;;;;;;;7.60;70.10;;;;;;4975789;28;19928;-77
2022/03/06 12:14:12;;;;;;;;;;;7.20;68.00;;;;;;4976039;28;20113;-78
2022/03/06 12:16:57;;;;;;;;;;;7.20;70.60;;;;;;4969273;28;20269;-77
2022/03/06 12:19:23;;;;;;;;;;;7.20;68.30;;;;;;4993555;28;19928;-77
2022/03/06 12:21:49;;;;;;;;;;;7.70;70.60;;;;;;4963711;28;20585;-77
2022/03/06 12:24:27;;;;;;;;;;;7.50;72.10;;;;;;4944501;28;19936;-77
2022/03/06 12:26:53;;;;;;;;;;;7.70;71.10;;;;;;4962370;28;19932;-77
2022/03/06 12:29:38;;;;;;;;;;;7.60;69.50;;;;;;4981078;28;19975;-77
2022/03/06 12:32:22;;;;;;;;;;;7.40;70.60;;;;;;4967101;28;19990;-77
2022/03/06 12:34:53;;;;;;;;;;;7.70;69.70;;;;;;4960229;28;19932;-77
2022/03/06 12:37:22;;;;;;;;;;;7.90;68.40;;;;;;4958214;28;20227;-77
2022/03/06 12:39:48;;;;;;;;;;;7.80;68.50;;;;;;4984449;28;20088;-78
2022/03/06 12:42:13;;;;;;;;;;;7.70;68.50;;;;;;4959183;28;19929;-78
2022/03/06 12:44:44;;;;;;;;;;;7.80;71.00;;;;;;4952488;28;20560;-77
2022/03/06 12:47:10;;;;;;;;;;;7.60;69.50;;;;;;4972630;28;19928;-77
2022/03/06 12:49:36;;;;;;;;;;;7.70;68.40;;;;;;4956120;28;20400;-77
2022/03/06 12:52:01;;;;;;;;;;;8.00;70.70;;;;;;4975365;28;19937;-76
2022/03/06 12:54:27;;;;;;;;;;;7.80;70.80;;;;;;4952401;28;19924;-77
2022/03/06 12:56:54;;;;;;;;;;;8.30;70.50;;;;;;4975034;28;19954;-78
2022/03/06 12:59:20;;;;;;;;;;;7.30;65.30;;;;;;4997018;28;19936;-78
2022/03/06 13:01:47;;;;;;;;;;;8.00;71.30;;;;;;4976595;28;20284;-78
2022/03/06 13:04:14;;;;;;;;;;;7.90;70.60;;;;;;4976203;28;20406;-78
2022/03/06 13:06:39;;;;;;;;;;;8.10;68.50;;;;;;4961429;28;20209;-77
2022/03/06 13:09:06;;;;;;;;;;;7.90;69.90;;;;;;4967446;28;20516;-77
2022/03/06 13:11:37;;;;;;;;;;;8.40;70.50;;;;;;4950628;28;20074;-78
2022/03/06 13:14:05;;;;;;;;;;;7.60;64.10;;;;;;4987377;28;19964;-78
2022/03/06 13:16:31;;;;;;;;;;;7.70;68.00;;;;;;4972250;28;20963;-78
2022/03/06 13:18:57;;;;;;;;;;;7.70;68.60;;;;;;4972702;28;19989;-77
2022/03/06 13:21:24;;;;;;;;;;;7.70;70.10;;;;;;4964572;28;20585;-77
2022/03/06 13:23:53;;;;;;;;;;;7.50;67.40;;;;;;4961403;28;19960;-78
2022/03/06 13:26:19;;;;;;;;;;;8.20;73.00;;;;;;4972112;28;20602;-78
2022/03/06 13:28:45;;;;;;;;;;;8.10;68.40;;;;;;4969517;28;19969;-78
2022/03/06 13:31:10;;;;;;;;;;;7.80;68.20;;;;;;4982997;28;20345;-78
2022/03/06 13:33:36;;;;;;;;;;;7.40;67.00;;;;;;4966547;28;20428;-78
2022/03/06 13:36:11;;;;;;;;;;;7.60;70.40;;;;;;4948079;28;19929;-77
2022/03/06 13:38:37;;;;;;;;;;;8.00;68.80;;;;;;4942300;28;20374;-77
2022/03/06 13:41:09;;;;;;;;;;;8.20;76.30;;;;;;4963795;28;19982;-78
2022/03/06 13:43:39;;;;;;;;;;;7.80;72.40;;;;;;4960575;28;19933;-79
2022/03/06 13:46:08;;;;;;;;;;;7.30;73.30;;;;;;4963351;28;19935;-77
2022/03/06 13:48:34;;;;;;;;;;;7.20;72.40;;;;;;4987832;28;20454;-77
2022/03/06 13:51:00;;;;;;;;;;;7.20;71.60;;;;;;4965474;28;20335;-77
2022/03/06 13:53:30;;;;;;;;;;;7.40;71.70;;;;;;4964967;28;19939;-79
2022/03/06 13:55:58;;;;;;;;;;;7.40;70.10;;;;;;4965164;28;20835;-77
2022/03/06 13:58:24;;;;;;;;;;;7.90;76.30;;;;;;4963360;28;19979;-77
2022/03/06 14:00:57;;;;;;;;;;;7.90;71.00;;;;;;4973696;28;20333;-77
2022/03/06 14:03:30;;;;;;;;;;;7.90;72.70;;;;;;4962660;28;19994;-79
2022/03/06 14:05:56;;;;;;;;;;;8.00;70.20;;;;;;4981752;28;20359;-78
2022/03/06 14:08:26;;;;;;;;;;;7.80;69.90;;;;;;4968416;28;19932;-79
2022/03/06 14:11:01;;;;;;;;;;;8.20;78.90;;;;;;4969757;28;19951;-79
2022/03/06 14:13:30;;;;;;;;;;;8.20;73.60;;;;;;4966178;28;20039;-78
2022/03/06 14:16:00;;;;;;;;;;;7.40;72.50;;;;;;4964215;28;20472;-77
2022/03/06 14:18:30;;;;;;;;;;;7.50;74.10;;;;;;4964797;28;19944;-77
2022/03/06 14:20:56;;;;;;;;;;;7.80;76.30;;;;;;4962538;28;20361;-77
2022/03/06 14:23:21;;;;;;;;;;;7.70;70.40;;;;;;4989292;28;19940;-78